Time;durP1;ratioP1;P1;durP2;ratioP2;P2;SDS_P1;SDS_P2;PMS_P1;PMS_P2;Temp;Humidity;BMP_temperature;BMP_pressure;BME280_temperature;BME280_humidity;BME280_pressure;Samples;Min_cycle;Max_cycle;Signal;HPM_P1;HPM_P2
2022/10/16 00:01:08;;;;;;;11.93;4.68;;;11.20;99.90;;;;;;5072642;28;20224;-85
2022/10/16 00:03:34;;;;;;;7.22;5.05;;;11.10;99.90;;;;;;5058437;28;20171;-85
2022/10/16 00:06:01;;;;;;;8.65;4.95;;;11.20;99.90;;;;;;5058773;28;20224;-85
2022/10/16 00:08:27;;;;;;;7.05;4.45;;;11.00;99.90;;;;;;5076848;28;20207;-85
2022/10/16 00:10:52;;;;;;;9.52;4.82;;;11.20;99.90;;;;;;5081888;28;20178;-85
2022/10/16 00:13:20;;;;;;;8.70;4.97;;;;;;;;;;5047481;28;20171;-85
2022/10/16 00:15:46;;;;;;;9.80;5.22;;;11.00;99.90;;;;;;5084343;28;20210;-84
2022/10/16 00:18:14;;;;;;;11.13;4.78;;;;;;;;;;5080261;28;20253;-85
2022/10/16 00:20:40;;;;;;;8.50;5.25;;;;;;;;;;5099565;28;20184;-83
2022/10/16 00:23:06;;;;;;;7.32;4.25;;;;;;;;;;5078761;28;20214;-84
2022/10/16 00:25:36;;;;;;;13.35;4.85;;;11.30;99.90;;;;;;5077672;28;20194;-84
2022/10/16 00:28:01;;;;;;;9.10;4.50;;;10.90;99.90;;;;;;5073266;28;20171;-88
2022/10/16 00:30:28;;;;;;;8.38;4.43;;;;;;;;;;5083387;28;20230;-84
2022/10/16 00:32:54;;;;;;;8.50;4.80;;;11.00;99.90;;;;;;5100239;28;20243;-88
2022/10/16 00:35:20;;;;;;;12.48;4.50;;;;;;;;;;5084403;28;20232;-83
2022/10/16 00:37:46;;;;;;;7.72;4.50;;;10.90;99.90;;;;;;5080504;28;20187;-84
2022/10/16 00:40:12;;;;;;;5.35;4.05;;;;;;;;;;5076254;28;20200;-84
2022/10/16 00:42:38;;;;;;;5.93;4.50;;;;;;;;;;5089533;28;20179;-84
2022/10/16 00:45:04;;;;;;;14.13;6.22;;;10.50;99.90;;;;;;5081582;28;20178;-84
2022/10/16 00:47:34;;;;;;;10.60;4.65;;;11.10;99.90;;;;;;5062587;28;20650;-84
2022/10/16 00:50:13;;;;;;;12.55;5.68;;;10.70;99.90;;;;;;5077957;28;20178;-84
2022/10/16 00:52:45;;;;;;;7.38;4.18;;;10.50;99.90;;;;;;5095534;28;20169;-84
2022/10/16 00:55:11;;;;;;;9.23;4.78;;;10.70;99.90;;;;;;5077032;28;20237;-86
2022/10/16 00:57:38;;;;;;;7.60;4.82;;;10.40;99.90;;;;;;5078349;28;20183;-84
2022/10/16 01:00:07;;;;;;;6.15;4.28;;;10.60;99.90;;;;;;5078545;28;20183;-85
2022/10/16 01:02:33;;;;;;;9.98;4.72;;;10.30;99.90;;;;;;5079490;28;20182;-84
2022/10/16 01:04:59;;;;;;;10.98;5.28;;;;;;;;;;5096790;28;20610;-84
2022/10/16 01:08:03;;;;;;;9.37;5.57;;;10.80;99.90;;;;;;5078508;28;20183;-84
2022/10/16 01:10:34;;;;;;;8.05;4.20;;;10.70;99.90;;;;;;5040208;28;20182;-84
2022/10/16 01:13:05;;;;;;;11.10;5.45;;;10.40;99.90;;;;;;5077798;28;20183;-85
2022/10/16 01:15:37;;;;;;;7.00;4.50;;;10.40;99.90;;;;;;5077620;28;20203;-84
2022/10/16 01:18:12;;;;;;;13.35;5.03;;;10.20;99.90;;;;;;5096975;28;20177;-84
2022/10/16 01:20:43;;;;;;;9.13;4.97;;;10.40;99.90;;;;;;5101627;28;20222;-85
2022/10/16 01:23:08;;;;;;;8.18;4.75;;;10.20;99.90;;;;;;5084803;28;20527;-84
2022/10/16 01:25:54;;;;;;;8.75;5.03;;;10.70;99.90;;;;;;5100466;28;20208;-84
2022/10/16 01:28:28;;;;;;;12.07;4.97;;;9.80;99.90;;;;;;5095707;28;20159;-84
2022/10/16 01:30:58;;;;;;;10.43;4.57;;;10.50;99.90;;;;;;5094920;28;20166;-84
2022/10/16 01:33:27;;;;;;;9.40;4.77;;;;;;;;;;5076704;28;20575;-84
2022/10/16 01:35:57;;;;;;;11.68;5.32;;;9.90;99.90;;;;;;5094919;28;20183;-84
2022/10/16 01:38:30;;;;;;;13.90;4.97;;;10.00;99.90;;;;;;5094545;28;20261;-84
2022/10/16 01:41:01;;;;;;;13.40;6.50;;;9.50;99.90;;;;;;5094803;28;20261;-85
2022/10/16 01:43:34;;;;;;;11.07;5.33;;;10.20;99.90;;;;;;5094114;28;20216;-84
2022/10/16 01:46:01;;;;;;;15.77;5.78;;;9.90;99.90;;;;;;5076354;28;20187;-84
2022/10/16 01:48:28;;;;;;;9.30;4.90;;;10.10;99.90;;;;;;5093887;28;20553;-84
2022/10/16 01:51:15;;;;;;;15.73;4.97;;;9.80;99.90;;;;;;5094730;28;20284;-84
2022/10/16 01:53:45;;;;;;;12.33;5.37;;;10.10;99.90;;;;;;5096397;28;20226;-84
2022/10/16 01:56:13;;;;;;;10.67;6.40;;;9.80;99.90;;;;;;5098358;28;20182;-85
2022/10/16 01:58:56;;;;;;;8.93;5.00;;;9.90;99.90;;;;;;5080163;28;20185;-85
2022/10/16 02:01:24;;;;;;;13.23;5.83;;;9.60;99.90;;;;;;5098233;28;20163;-84
2022/10/16 02:03:53;;;;;;;8.67;5.03;;;9.70;99.90;;;;;;5096100;28;20179;-85
2022/10/16 02:06:19;;;;;;;9.00;4.93;;;9.50;99.90;;;;;;5095200;28;20568;-84
2022/10/16 02:08:45;;;;;;;13.30;6.60;;;;;;;;;;5043148;28;20220;-84
2022/10/16 02:11:11;;;;;;;8.33;4.53;;;;;;;;;;5094346;28;20214;-86
2022/10/16 02:13:50;;;;;;;11.33;6.43;;;9.70;99.90;;;;;;5059755;28;20203;-85
2022/10/16 02:16:16;;;;;;;10.57;5.37;;;;;;;;;;5094378;28;20174;-85
2022/10/16 02:18:43;;;;;;;8.10;4.97;;;9.90;99.90;;;;;;5094775;28;20649;-84
2022/10/16 02:21:29;;;;;;;10.30;5.67;;;9.40;99.90;;;;;;5094337;28;20185;-84
2022/10/16 02:24:13;;;;;;;9.30;5.27;;;9.30;99.90;;;;;;5075917;28;20182;-85
2022/10/16 02:26:39;;;;;;;10.60;5.57;;;;;;;;;;5094204;28;20241;-84
2022/10/16 02:29:10;;;;;;;10.27;5.10;;;9.60;99.90;;;;;;5093914;28;20200;-85
2022/10/16 02:31:41;;;;;;;10.23;5.37;;;9.50;99.90;;;;;;5075813;28;20186;-84
2022/10/16 02:34:11;;;;;;;11.80;5.90;;;9.60;99.90;;;;;;5076064;28;20213;-84
2022/10/16 02:36:38;;;;;;;12.33;5.53;;;6.30;99.90;;;;;;5075956;28;20201;-84
2022/10/16 02:39:04;;;;;;;11.83;5.00;;;9.70;99.90;;;;;;5093979;28;20182;-85
2022/10/16 02:41:31;;;;;;;11.53;5.10;;;;;;;;;;5093620;28;20638;-84
2022/10/16 02:43:57;;;;;;;12.73;6.43;;;;;;;;;;5093321;28;20186;-84
2022/10/16 02:46:23;;;;;;;10.27;6.50;;;;;;;;;;5058908;28;20186;-84
2022/10/16 02:48:49;;;;;;;12.70;5.20;;;;;;;;;;5093455;28;20174;-84
2022/10/16 02:51:14;;;;;;;13.10;5.77;;;9.60;99.90;;;;;;5075410;28;20217;-84
2022/10/16 02:53:40;;;;;;;9.97;6.20;;;9.50;99.90;;;;;;5057946;28;20678;-83
2022/10/16 02:56:06;;;;;;;9.63;4.43;;;;;;;;;;5075464;28;20187;-84
2022/10/16 02:58:33;;;;;;;10.00;5.37;;;9.40;99.90;;;;;;5092887;28;20175;-83
2022/10/16 03:00:59;;;;;;;7.30;4.47;;;;;;;;;;5042514;28;20277;-84
2022/10/16 03:03:25;;;;;;;10.93;5.77;;;;;;;;;;5075158;28;20653;-84
2022/10/16 03:05:51;;;;;;;12.20;5.07;;;;;;;;;;5093604;28;20266;-84
2022/10/16 03:08:23;;;;;;;9.10;4.90;;;;;;;;;;5074897;28;20193;-84
2022/10/16 03:10:49;;;;;;;11.60;6.00;;;9.10;99.90;;;;;;5094020;28;20177;-85
2022/10/16 03:13:15;;;;;;;14.20;5.40;;;;;;;;;;5075498;28;20261;-84
2022/10/16 03:15:41;;;;;;;11.47;5.73;;;;;;;;;;5074914;28;20658;-85
2022/10/16 03:18:06;;;;;;;12.57;5.77;;;9.60;99.90;;;;;;5075730;28;20194;-84
2022/10/16 03:20:32;;;;;;;11.83;6.30;;;;;;;;;;5075191;28;20182;-85
2022/10/16 03:22:58;;;;;;;9.57;5.00;;;9.20;99.90;;;;;;5093221;28;20177;-84
2022/10/16 03:25:24;;;;;;;15.20;5.60;;;9.40;99.90;;;;;;5058601;28;20190;-85
2022/10/16 03:27:50;;;;;;;10.73;5.90;;;;;;;;;;5093248;28;20174;-84
2022/10/16 03:30:16;;;;;;;9.13;5.63;;;9.30;99.90;;;;;;5075463;28;20186;-84
2022/10/16 03:32:42;;;;;;;10.00;5.27;;;;;;;;;;5093114;28;20178;-84
2022/10/16 03:35:08;;;;;;;10.33;5.90;;;9.40;99.90;;;;;;5093266;28;20199;-83
2022/10/16 03:37:34;;;;;;;11.13;5.77;;;;;;;;;;5061056;28;20243;-85
2022/10/16 03:39:59;;;;;;;11.77;5.37;;;9.60;99.90;;;;;;5079216;28;20175;-84
2022/10/16 03:42:25;;;;;;;9.07;5.10;;;;;;;;;;5078642;28;20583;-85
2022/10/16 03:44:51;;;;;;;9.17;5.50;;;;;;;;;;5097132;28;20650;-84
2022/10/16 03:47:21;;;;;;;13.60;5.67;;;;;;;;;;5078441;28;20633;-84
2022/10/16 03:49:47;;;;;;;10.17;5.27;;;9.40;99.90;;;;;;5078200;28;20193;-84
2022/10/16 03:52:13;;;;;;;10.50;4.67;;;9.90;99.90;;;;;;5045608;28;20213;-84
2022/10/16 03:54:39;;;;;;;9.80;5.43;;;;;;;;;;5077866;28;20262;-84
2022/10/16 03:57:05;;;;;;;9.73;5.57;;;9.80;99.90;;;;;;5078439;28;20635;-84
2022/10/16 03:59:31;;;;;;;11.97;5.97;;;;;;;;;;5096096;28;20174;-84
2022/10/16 04:01:56;;;;;;;8.67;5.40;;;9.70;99.90;;;;;;5078295;28;20370;-84
2022/10/16 04:04:22;;;;;;;10.70;4.87;;;;;;;;;;5096223;28;20265;-83
2022/10/16 04:06:48;;;;;;;14.67;6.27;;;10.20;99.90;;;;;;5096128;28;20210;-84
2022/10/16 04:09:14;;;;;;;17.07;6.50;;;;;;;;;;5096148;28;20206;-84
2022/10/16 04:11:40;;;;;;;13.27;5.57;;;;;;;;;;5096007;28;20182;-84
2022/10/16 04:14:06;;;;;;;12.60;5.43;;;9.80;99.90;;;;;;5061727;28;20567;-84
2022/10/16 04:16:32;;;;;;;10.80;5.40;;;;;;;;;;5077644;28;20179;-85
2022/10/16 04:18:57;;;;;;;11.23;5.43;;;9.90;99.90;;;;;;5078582;28;20232;-84
2022/10/16 04:21:23;;;;;;;11.63;5.57;;;;;;;;;;5078384;28;20630;-84
2022/10/16 04:23:49;;;;;;;10.23;4.70;;;;;;;;;;5077525;28;20182;-83
2022/10/16 04:26:15;;;;;;;7.03;4.77;;;10.10;99.90;;;;;;5096448;28;20265;-83
2022/10/16 04:28:41;;;;;;;9.93;5.37;;;;;;;;;;5095402;28;20257;-84
2022/10/16 04:31:07;;;;;;;7.37;5.27;;;10.20;99.90;;;;;;5061150;28;20635;-84
2022/10/16 04:33:33;;;;;;;14.05;5.35;;;;;;;;;;5077188;28;20183;-84
2022/10/16 04:36:00;;;;;;;10.55;5.55;;;10.00;99.90;;;;;;5095615;28;20178;-84
2022/10/16 04:38:26;;;;;;;7.50;5.50;;;10.10;99.90;;;;;;5078076;28;20175;-84
2022/10/16 04:40:52;;;;;;;9.97;5.53;;;10.10;99.90;;;;;;5095506;28;20174;-83
2022/10/16 04:43:19;;;;;;;8.00;4.63;;;;;;;;;;5077599;28;20715;-84
2022/10/16 04:45:44;;;;;;;8.02;5.00;;;10.20;99.90;;;;;;5094375;28;20194;-84
2022/10/16 04:48:10;;;;;;;8.87;5.30;;;10.10;99.90;;;;;;5077211;28;20197;-83
2022/10/16 04:50:36;;;;;;;8.05;4.95;;;;;;;;;;5077085;28;20631;-83
2022/10/16 04:53:02;;;;;;;8.10;5.07;;;10.10;99.90;;;;;;5077413;28;20186;-84
2022/10/16 04:55:28;;;;;;;9.43;5.05;;;;;;;;;;5095420;28;20198;-83
2022/10/16 04:57:54;;;;;;;9.43;4.40;;;;;;;;;;5095018;28;20623;-84
2022/10/16 05:00:19;;;;;;;8.60;5.03;;;10.30;99.90;;;;;;5077391;28;20269;-83
2022/10/16 05:02:45;;;;;;;10.45;4.88;;;;;;;;;;5076656;28;20261;-84
2022/10/16 05:05:11;;;;;;;9.63;5.25;;;10.10;99.90;;;;;;5051225;28;20690;-84
2022/10/16 05:07:38;;;;;;;15.10;4.77;;;;;;;;;;5051330;28;20187;-83
2022/10/16 05:10:04;;;;;;;9.48;4.47;;;10.40;99.90;;;;;;5085716;28;20183;-84
2022/10/16 05:12:30;;;;;;;9.20;5.60;;;;;;;;;;5048866;28;20666;-84
2022/10/16 05:14:58;;;;;;;8.70;4.97;;;;;;;;;;5066567;28;20211;-84
2022/10/16 05:17:25;;;;;;;13.40;5.75;;;11.00;99.90;;;;;;5085358;28;20201;-84
2022/10/16 05:19:51;;;;;;;22.60;6.33;;;10.20;99.90;;;;;;5066727;28;20188;-84
2022/10/16 05:22:17;;;;;;;9.48;5.00;;;;;;;;;;5055036;28;20179;-84
2022/10/16 05:24:42;;;;;;;8.80;5.07;;;10.80;99.90;;;;;;5059236;28;20206;-86
2022/10/16 05:27:08;;;;;;;10.23;5.32;;;;;;;;;;5071073;28;20567;-85
2022/10/16 05:29:35;;;;;;;9.93;5.80;;;;;;;;;;5075967;28;21614;-86
2022/10/16 05:32:01;;;;;;;6.90;4.30;;;;;;;;;;5089175;28;20179;-86
2022/10/16 05:34:27;;;;;;;8.95;5.40;;;;;;;;;;5075936;28;20734;-87
2022/10/16 05:36:53;;;;;;;7.18;4.45;;;11.10;99.90;;;;;;5092984;28;20224;-87
2022/10/16 05:39:19;;;;;;;8.57;5.55;;;;;;;;;;5093251;28;20179;-86
2022/10/16 05:41:45;;;;;;;10.10;4.70;;;;;;;;;;5093207;28;20231;-85
2022/10/16 05:44:11;;;;;;;7.88;4.53;;;;;;;;;;5092337;28;20217;-86
2022/10/16 05:46:37;;;;;;;6.97;4.20;;;13.40;99.90;;;;;;5074799;28;20182;-86
2022/10/16 05:49:03;;;;;;;11.80;5.55;;;;;;;;;;5075095;28;20182;-87
2022/10/16 05:51:29;;;;;;;8.48;4.53;;;;;;;;;;5094497;28;20182;-86
2022/10/16 05:53:55;;;;;;;7.18;4.43;;;;;;;;;;5094405;28;20253;-85
2022/10/16 05:56:21;;;;;;;9.15;4.30;;;11.00;99.90;;;;;;5094480;28;20205;-87
2022/10/16 05:58:47;;;;;;;12.40;5.30;;;;;;;;;;5076349;28;20186;-86
2022/10/16 06:01:18;;;;;;;14.63;4.88;;;11.20;99.90;;;;;;5091017;28;20182;-86
2022/10/16 06:03:44;;;;;;;10.40;5.03;;;10.50;99.90;;;;;;5073889;28;20187;-86
2022/10/16 06:06:14;;;;;;;8.30;5.18;;;11.30;99.90;;;;;;5069803;28;20190;-86
2022/10/16 06:08:41;;;;;;;8.05;4.05;;;11.40;99.90;;;;;;5071584;28;20176;-84
2022/10/16 06:11:09;;;;;;;8.68;4.78;;;11.60;99.90;;;;;;5071763;28;20175;-85
2022/10/16 06:13:35;;;;;;;12.95;5.22;;;;;;;;;;5087298;28;20182;-86
2022/10/16 06:16:02;;;;;;;8.88;4.47;;;10.90;99.90;;;;;;5072613;28;20214;-85
2022/10/16 06:18:28;;;;;;;10.25;6.32;;;11.20;99.90;;;;;;5087133;28;20670;-85
2022/10/16 06:20:55;;;;;;;9.60;4.57;;;11.30;99.90;;;;;;5085267;28;20174;-84
2022/10/16 06:23:21;;;;;;;8.95;5.15;;;;;;;;;;5091898;28;20186;-86
2022/10/16 06:25:47;;;;;;;8.07;4.15;;;10.90;99.90;;;;;;5085734;28;20270;-86
2022/10/16 06:28:14;;;;;;;13.45;6.53;;;11.30;99.90;;;;;;5082915;28;20273;-88
2022/10/16 06:30:39;;;;;;;9.70;5.75;;;11.00;99.90;;;;;;5087248;28;20175;-86
2022/10/16 06:33:06;;;;;;;9.60;4.93;;;;;;;;;;5071733;28;20170;-86
2022/10/16 06:35:32;;;;;;;9.02;5.05;;;;;;;;;;5065033;28;20683;-86
2022/10/16 06:37:58;;;;;;;9.18;4.72;;;11.10;99.90;;;;;;5086408;28;20182;-86
2022/10/16 06:40:24;;;;;;;14.02;6.35;;;;;;;;;;5048976;28;20198;-86
2022/10/16 06:42:51;;;;;;;9.63;5.22;;;11.40;99.90;;;;;;5064331;28;20655;-86
2022/10/16 06:45:17;;;;;;;10.75;4.57;;;11.20;99.90;;;;;;5085819;28;20194;-86
2022/10/16 06:47:43;;;;;;;9.90;5.13;;;;;;;;;;5084466;28;20198;-86
2022/10/16 06:50:09;;;;;;;11.55;5.68;;;11.30;99.90;;;;;;5071951;28;20171;-90
2022/10/16 06:52:35;;;;;;;8.25;5.07;;;11.00;99.90;;;;;;5093138;28;20175;-87
2022/10/16 06:55:02;;;;;;;9.50;4.82;;;;;;;;;;5096369;28;20230;-85
2022/10/16 06:57:28;;;;;;;10.50;5.60;;;11.60;99.90;;;;;;5085811;28;20183;-91
2022/10/16 06:59:54;;;;;;;10.10;5.03;;;;;;;;;;5080157;28;20179;-85
2022/10/16 07:02:20;;;;;;;8.00;4.40;;;;;;;;;;5073000;28;20193;-87
2022/10/16 07:04:46;;;;;;;7.35;4.70;;;;;;;;;;5072853;28;20190;-89
2022/10/16 07:07:12;;;;;;;7.13;4.72;;;12.00;99.90;;;;;;5092757;28;20190;-87
2022/10/16 07:09:38;;;;;;;13.55;5.60;;;;;;;;;;5093708;28;20197;-89
2022/10/16 07:12:04;;;;;;;8.93;4.85;;;;;;;;;;5092511;28;20280;-87
2022/10/16 07:14:30;;;;;;;8.95;5.00;;;;;;;;;;5064523;28;20301;-87
2022/10/16 07:16:55;;;;;;;10.75;4.50;;;11.90;99.90;;;;;;5064213;28;20214;-86
2022/10/16 07:19:21;;;;;;;9.52;4.32;;;;;;;;;;5072214;28;20206;-86
2022/10/16 07:21:47;;;;;;;8.30;4.72;;;12.30;99.90;;;;;;5058551;28;20183;-87
2022/10/16 07:24:15;;;;;;;6.35;3.90;;;12.40;99.90;;;;;;5065912;28;20664;-88
2022/10/16 07:26:43;;;;;;;11.13;4.85;;;12.60;99.90;;;;;;5071262;28;20171;-88
2022/10/16 07:29:27;;;;;;;10.55;5.18;;;12.80;99.90;;;;;;5065768;28;20188;-89
2022/10/16 07:31:53;;;;;;;7.57;3.95;;;;;;;;;;5067485;28;20179;-88
2022/10/16 07:34:21;;;;;;;9.70;5.47;;;12.80;99.90;;;;;;5072477;28;20219;-87
2022/10/16 07:36:50;;;;;;;6.15;4.32;;;12.90;99.90;;;;;;5068540;28;20605;-89
2022/10/16 07:39:17;;;;;;;7.63;4.60;;;12.80;99.90;;;;;;5067093;28;20717;-88
2022/10/16 07:41:42;;;;;;;8.27;5.85;;;13.30;99.90;;;;;;5064063;28;20198;-86
2022/10/16 07:44:08;;;;;;;7.50;4.80;;;;;;;;;;5071085;28;20558;-87
2022/10/16 07:46:35;;;;;;;7.38;4.57;;;12.90;99.90;;;;;;5045333;28;20183;-87
2022/10/16 07:49:02;;;;;;;7.38;4.47;;;13.30;99.90;;;;;;5065177;28;20180;-88
2022/10/16 07:51:29;;;;;;;8.15;4.40;;;;;;;;;;5067342;28;20673;-87
2022/10/16 07:53:55;;;;;;;9.73;4.40;;;13.40;99.90;;;;;;5056847;28;20227;-86
2022/10/16 07:56:21;;;;;;;7.90;4.70;;;;;;;;;;5065714;28;20590;-88
2022/10/16 07:58:49;;;;;;;9.43;4.32;;;;;;;;;;5073679;28;20673;-90
2022/10/16 08:01:17;;;;;;;7.22;4.10;;;14.00;99.90;;;;;;5073832;28;20525;-87
2022/10/16 08:03:44;;;;;;;8.82;4.78;;;14.10;99.90;;;;;;5070515;28;20254;-88
2022/10/16 08:06:10;;;;;;;8.52;5.07;;;;;;;;;;5074073;28;20206;-85
2022/10/16 08:08:36;;;;;;;9.82;5.47;;;13.90;99.90;;;;;;5038745;28;20189;-85
2022/10/16 08:11:03;;;;;;;10.10;4.53;;;;;;;;;;5072476;28;20536;-85
2022/10/16 08:13:30;;;;;;;8.18;4.38;;;14.30;99.90;;;;;;5053490;28;20283;-85
2022/10/16 08:15:56;;;;;;;8.85;4.78;;;;;;;;;;5064309;28;20207;-88
2022/10/16 08:18:22;;;;;;;7.07;4.15;;;;;;;;;;5069813;28;20183;-89
2022/10/16 08:20:58;;;;;;;10.82;4.82;;;14.60;99.90;;;;;;5062907;28;20728;-86
2022/10/16 08:23:25;;;;;;;9.27;5.53;;;14.80;99.90;;;;;;5071112;28;20201;-85
2022/10/16 08:25:53;;;;;;;9.27;4.90;;;;;;;;;;5055699;28;20192;-87
2022/10/16 08:28:19;;;;;;;7.35;4.10;;;14.70;99.90;;;;;;5075713;28;20183;-86
2022/10/16 08:30:44;;;;;;;8.75;5.13;;;14.60;99.90;;;;;;5067230;28;20640;-88
2022/10/16 08:33:10;;;;;;;5.88;4.10;;;;;;;;;;5053210;28;20184;-86
2022/10/16 08:35:36;;;;;;;6.38;4.43;;;;;;;;;;5074201;28;20199;-88
2022/10/16 08:38:07;;;;;;;10.13;4.13;;;15.30;99.90;;;;;;5075743;28;20187;-84
2022/10/16 08:40:36;;;;;;;7.43;4.38;;;15.50;99.90;;;;;;5078122;28;20214;-87
2022/10/16 08:43:23;;;;;;;9.88;5.03;;;15.90;99.90;;;;;;5067964;28;20180;-89
2022/10/16 08:46:09;;;;;;;14.10;4.32;;;15.90;99.90;;;;;;5067720;28;20176;-84
2022/10/16 08:48:44;;;;;;;5.75;3.67;;;;;;;;;;5029598;28;20203;-86
2022/10/16 08:51:23;;;;;;;8.57;4.28;;;15.20;99.90;;;;;;5063903;28;20180;-88
2022/10/16 08:53:58;;;;;;;6.00;3.67;;;16.00;99.90;;;;;;5068843;28;20257;-85
2022/10/16 08:56:25;;;;;;;11.52;5.80;;;15.90;99.90;;;;;;5064300;28;20175;-88
2022/10/16 08:58:52;;;;;;;7.78;3.92;;;15.70;99.90;;;;;;5057791;28;20188;-85
2022/10/16 09:01:23;;;;;;;7.15;4.43;;;16.10;99.90;;;;;;5058884;28;20179;-88
2022/10/16 09:04:26;;;;;;;7.03;3.78;;;16.50;99.90;;;;;;5066741;28;20171;-87
2022/10/16 09:07:03;;;;;;;6.57;3.70;;;16.20;99.90;;;;;;5065201;28;20175;-89
2022/10/16 09:09:29;;;;;;;7.43;4.18;;;;;;;;;;5066495;28;20201;-89
2022/10/16 09:12:22;;;;;;;8.40;3.72;;;16.50;99.90;;;;;;5067686;28;20259;-88
2022/10/16 09:15:06;;;;;;;7.05;4.30;;;17.10;99.90;;;;;;5070845;28;20207;-87
2022/10/16 09:17:35;;;;;;;6.03;3.90;;;;;;;;;;5068114;28;20187;-89
2022/10/16 09:20:26;;;;;;;5.18;3.45;;;16.20;99.90;;;;;;5066129;28;20262;-86
2022/10/16 09:23:14;;;;;;;9.18;4.20;;;16.30;99.90;;;;;;5061472;28;20180;-87
2022/10/16 09:25:45;;;;;;;11.70;4.10;;;16.60;99.90;;;;;;5052820;28;20199;-89
2022/10/16 09:28:11;;;;;;;10.50;6.07;;;;;;;;;;5066030;28;20175;-86
2022/10/16 09:30:38;;;;;;;11.52;4.18;;;16.50;99.90;;;;;;5065430;28;20550;-86
2022/10/16 09:33:05;;;;;;;7.28;3.95;;;16.20;99.90;;;;;;5060272;28;20203;-86
2022/10/16 09:35:39;;;;;;;9.18;4.57;;;16.50;99.90;;;;;;5057176;28;20210;-89
2022/10/16 09:38:06;;;;;;;6.15;3.53;;;16.30;99.90;;;;;;5066160;28;20183;-88
2022/10/16 09:40:37;;;;;;;7.85;4.10;;;16.40;99.90;;;;;;5058376;28;20273;-88
2022/10/16 09:43:41;;;;;;;9.20;4.35;;;16.80;99.90;;;;;;5064404;28;20180;-88
2022/10/16 09:46:27;;;;;;;6.22;3.78;;;16.60;99.90;;;;;;5068518;28;20384;-89
2022/10/16 09:48:58;;;;;;;8.07;3.90;;;16.40;99.90;;;;;;5067028;28;20176;-90
2022/10/16 09:51:35;;;;;;;9.77;4.72;;;16.50;99.90;;;;;;5068311;28;20186;-89
2022/10/16 09:54:09;;;;;;;12.32;5.15;;;16.40;99.90;;;;;;5068072;28;20355;-87
2022/10/16 09:56:38;;;;;;;6.13;4.32;;;16.70;99.90;;;;;;5071504;28;20205;-87
2022/10/16 09:59:16;;;;;;;8.35;3.85;;;16.60;99.90;;;;;;5069886;28;20175;-87
2022/10/16 10:01:53;;;;;;;6.95;4.38;;;16.60;99.90;;;;;;5055928;28;20183;-88
2022/10/16 10:04:20;;;;;;;5.68;3.28;;;16.60;99.90;;;;;;5059377;28;20269;-86
2022/10/16 10:06:46;;;;;;;6.00;4.18;;;;;;;;;;5052444;28;20168;-87
2022/10/16 10:09:25;;;;;;;8.38;3.95;;;17.10;99.90;;;;;;5059863;28;20249;-88
2022/10/16 10:11:55;;;;;;;6.53;4.03;;;16.20;99.90;;;;;;5071716;28;20643;-86
2022/10/16 10:14:22;;;;;;;7.93;4.57;;;16.40;99.90;;;;;;5072408;28;20199;-87
2022/10/16 10:16:49;;;;;;;9.43;4.35;;;16.50;99.90;;;;;;5072393;28;20224;-87
2022/10/16 10:19:20;;;;;;;7.70;3.80;;;17.10;99.90;;;;;;5067189;28;20179;-87
2022/10/16 10:21:47;;;;;;;11.65;4.30;;;17.40;99.90;;;;;;5072572;28;20175;-88
2022/10/16 10:24:14;;;;;;;8.15;3.90;;;16.90;99.90;;;;;;5066989;28;20194;-88
2022/10/16 10:26:55;;;;;;;7.88;4.15;;;16.70;99.90;;;;;;5060470;28;20182;-86
2022/10/16 10:29:32;;;;;;;6.85;4.15;;;16.70;99.90;;;;;;5072362;28;20197;-86
2022/10/16 10:32:21;;;;;;;11.15;4.35;;;16.60;99.90;;;;;;5064270;28;20190;-87
2022/10/16 10:35:27;;;;;;;5.97;4.40;;;17.40;99.90;;;;;;5068344;28;20217;-86
2022/10/16 10:37:53;;;;;;;7.07;3.80;;;;;;;;;;5061703;28;20203;-86
2022/10/16 10:40:38;;;;;;;7.22;4.68;;;17.10;99.90;;;;;;5070106;28;20183;-86
2022/10/16 10:43:30;;;;;;;6.07;3.60;;;17.20;99.90;;;;;;5070746;28;20205;-86
2022/10/16 10:46:04;;;;;;;11.63;5.05;;;17.70;99.90;;;;;;5070052;28;20198;-87
2022/10/16 10:49:06;;;;;;;7.18;4.20;;;17.40;99.90;;;;;;5072499;28;20229;-87
2022/10/16 10:51:54;;;;;;;7.55;4.70;;;17.40;99.90;;;;;;5058045;28;20233;-89
2022/10/16 10:54:45;;;;;;;4.60;3.40;;;17.40;99.90;;;;;;5070785;28;20241;-87
2022/10/16 10:57:23;;;;;;;10.25;4.43;;;17.70;99.90;;;;;;5060615;28;20571;-87
2022/10/16 11:00:06;;;;;;;8.55;3.47;;;17.20;99.90;;;;;;5087453;28;20178;-86
2022/10/16 11:02:41;;;;;;;9.15;4.18;;;17.60;99.90;;;;;;5092362;28;20303;-87
2022/10/16 11:05:31;;;;;;;10.75;4.18;;;17.50;99.90;;;;;;5090861;28;20182;-89
2022/10/16 11:08:21;;;;;;;6.55;3.97;;;17.90;99.90;;;;;;5090649;28;20187;-87
2022/10/16 11:10:59;;;;;;;8.93;4.25;;;17.60;99.90;;;;;;5094329;28;20670;-86
2022/10/16 11:13:45;;;;;;;6.85;4.32;;;17.60;99.90;;;;;;5086591;28;20175;-86
2022/10/16 11:16:22;;;;;;;8.43;4.53;;;17.50;99.90;;;;;;5089828;28;20217;-86
2022/10/16 11:19:12;;;;;;;7.03;3.72;;;17.50;99.90;;;;;;5078195;28;20177;-87
2022/10/16 11:21:48;;;;;;;10.07;4.78;;;17.50;99.90;;;;;;5065890;28;20225;-86
2022/10/16 11:24:50;;;;;;;8.38;3.75;;;17.40;99.90;;;;;;5070214;28;20191;-88
2022/10/16 11:27:27;;;;;;;7.80;3.58;;;17.10;99.90;;;;;;5080531;28;20285;-87
2022/10/16 11:29:59;;;;;;;7.00;4.75;;;17.50;99.90;;;;;;5075024;28;20182;-89
2022/10/16 11:32:48;;;;;;;7.60;3.95;;;17.50;99.90;;;;;;5092869;28;20175;-87
2022/10/16 11:35:42;;;;;;;8.70;3.70;;;17.20;99.90;;;;;;5075173;28;20684;-89
2022/10/16 11:38:15;;;;;;;7.00;3.75;;;17.40;99.90;;;;;;5088746;28;20174;-87
2022/10/16 11:40:47;;;;;;;7.38;4.47;;;17.50;99.90;;;;;;5088143;28;20183;-89
2022/10/16 11:43:14;;;;;;;6.60;3.85;;;;;;;;;;5068490;28;20184;-87
2022/10/16 11:45:45;;;;;;;7.35;4.07;;;17.10;99.90;;;;;;5059976;28;20193;-87
2022/10/16 11:48:35;;;;;;;6.63;3.22;;;17.40;99.90;;;;;;5070532;28;20193;-87
2022/10/16 11:51:31;;;;;;;6.28;4.40;;;17.40;99.90;;;;;;5092807;28;20658;-86
2022/10/16 11:54:41;;;;;;;8.10;4.00;;;17.40;99.90;;;;;;5067656;28;20227;-86
2022/10/16 11:57:42;;;;;;;8.43;4.25;;;17.40;99.90;;;;;;5060701;28;20207;-87
2022/10/16 12:00:31;;;;;;;8.02;4.40;;;17.40;99.90;;;;;;5048506;28;20194;-87
2022/10/16 12:03:03;;;;;;;5.20;3.65;;;17.40;99.90;;;;;;5073632;28;20187;-87
2022/10/16 12:05:42;;;;;;;12.07;4.15;;;17.10;99.90;;;;;;5069852;28;20191;-86
2022/10/16 12:08:14;;;;;;;5.22;3.63;;;17.50;99.90;;;;;;5067311;28;20301;-89
2022/10/16 12:10:42;;;;;;;11.57;4.57;;;17.40;99.90;;;;;;5071933;28;20652;-87
2022/10/16 12:13:30;;;;;;;7.72;4.28;;;17.80;99.90;;;;;;5068791;28;20240;-87
2022/10/16 12:16:25;;;;;;;8.00;4.18;;;17.60;99.90;;;;;;5075911;28;20215;-88
2022/10/16 12:19:13;;;;;;;9.35;4.53;;;17.70;99.90;;;;;;5053962;28;20248;-87
2022/10/16 12:21:40;;;;;;;8.38;4.28;;;;;;;;;;5075151;28;20183;-88
2022/10/16 12:24:06;;;;;;;7.13;4.60;;;17.50;99.90;;;;;;5074058;28;20688;-88
2022/10/16 12:26:36;;;;;;;7.88;4.30;;;17.80;99.90;;;;;;5066827;28;20183;-87
2022/10/16 12:29:22;;;;;;;7.03;3.90;;;17.80;99.90;;;;;;5073448;28;20274;-86
2022/10/16 12:31:49;;;;;;;11.07;4.90;;;17.60;99.90;;;;;;5074346;28;20187;-87
2022/10/16 12:34:41;;;;;;;9.23;3.85;;;18.30;99.90;;;;;;5075909;28;20242;-87
2022/10/16 12:37:20;;;;;;;12.73;6.75;;;18.30;99.90;;;;;;5061034;28;20211;-87
2022/10/16 12:39:48;;;;;;;12.70;4.72;;;18.80;99.90;;;;;;5077037;28;20213;-86
2022/10/16 12:42:33;;;;;;;9.73;5.28;;;18.40;99.90;;;;;;5055050;28;20253;-85
2022/10/16 12:45:00;;;;;;;10.30;4.40;;;18.70;99.90;;;;;;5061349;28;20202;-86
2022/10/16 12:47:32;;;;;;;7.72;4.88;;;18.90;99.90;;;;;;5055195;28;20171;-86
2022/10/16 12:49:59;;;;;;;8.40;5.00;;;19.10;99.90;;;;;;5072524;28;20238;-87
2022/10/16 12:52:37;;;;;;;10.52;4.25;;;19.30;99.90;;;;;;5043793;28;20186;-86
2022/10/16 12:55:05;;;;;;;9.07;4.63;;;19.40;99.90;;;;;;5092586;28;20351;-88
2022/10/16 12:58:26;;;;;;;8.13;4.65;;;19.70;99.90;;;;;;5097267;28;20186;-87
2022/10/16 13:00:57;;;;;;;11.52;5.88;;;20.00;99.90;;;;;;5001036;28;20220;-86
2022/10/16 13:03:44;;;;;;;8.05;4.07;;;20.60;99.90;;;;;;4997897;28;20220;-86
2022/10/16 13:06:24;;;;;;;6.95;4.05;;;21.10;99.90;;;;;;5078751;28;20182;-87
2022/10/16 13:09:20;;;;;;;6.60;3.92;;;21.80;99.90;;;;;;5110993;28;20236;-86
2022/10/16 13:11:46;;;;;;;5.45;3.10;;;;;;;;;;5111960;27;20163;-87
2022/10/16 13:14:30;;;;;;;5.05;3.50;;;22.40;99.90;;;;;;5108109;28;20195;-84
2022/10/16 13:17:18;;;;;;;6.45;3.85;;;21.70;99.90;;;;;;5089553;28;20167;-86
2022/10/16 13:19:58;;;;;;;7.82;3.85;;;21.20;99.90;;;;;;5076877;28;20181;-87
2022/10/16 13:22:34;;;;;;;5.45;3.70;;;21.60;99.90;;;;;;5097358;28;20178;-85
2022/10/16 13:25:09;;;;;;;7.18;3.58;;;21.40;99.90;;;;;;5115082;28;20238;-91
2022/10/16 13:27:45;;;;;;;8.45;3.95;;;21.00;99.90;;;;;;5100625;28;20271;-88
2022/10/16 13:30:19;;;;;;;5.82;3.70;;;21.30;99.90;;;;;;5063853;28;20190;-85
2022/10/16 13:32:53;;;;;;;6.22;3.58;;;21.10;99.90;;;;;;5080473;28;20193;-87
2022/10/16 13:35:27;;;;;;;6.65;3.47;;;21.00;99.90;;;;;;5073594;28;20298;-85
2022/10/16 13:38:04;;;;;;;7.78;4.55;;;20.90;99.90;;;;;;5082596;28;20282;-87